sensor_id;sensor_type;location;lat;lon;timestamp;temperature;humidity
73509;SHT30;61750;55.036;73.312;2023-02-15T00:01:59;-21.55;77.79
73509;SHT30;61750;55.036;73.312;2023-02-15T00:04:25;-21.61;77.59
73509;SHT30;61750;55.036;73.312;2023-02-15T00:07:17;-21.48;78.24
73509;SHT30;61750;55.036;73.312;2023-02-15T00:09:53;-21.47;78.37
73509;SHT30;61750;55.036;73.312;2023-02-15T00:12:19;-21.43;78.63
73509;SHT30;61750;55.036;73.312;2023-02-15T00:14:45;-21.38;78.84
73509;SHT30;61750;55.036;73.312;2023-02-15T00:17:11;-21.43;78.79
73509;SHT30;61750;55.036;73.312;2023-02-15T00:19:37;-21.40;78.92
73509;SHT30;61750;55.036;73.312;2023-02-15T00:22:03;-21.31;79.03
73509;SHT30;61750;55.036;73.312;2023-02-15T00:24:29;-21.33;78.71
73509;SHT30;61750;55.036;73.312;2023-02-15T00:26:55;-21.27;78.62
73509;SHT30;61750;55.036;73.312;2023-02-15T00:29:26;-21.31;78.40
73509;SHT30;61750;55.036;73.312;2023-02-15T00:31:53;-21.30;78.44
73509;SHT30;61750;55.036;73.312;2023-02-15T00:34:23;-21.27;78.53
73509;SHT30;61750;55.036;73.312;2023-02-15T00:36:49;-21.23;78.59
73509;SHT30;61750;55.036;73.312;2023-02-15T00:39:16;-21.26;78.44
73509;SHT30;61750;55.036;73.312;2023-02-15T00:41:43;-21.24;78.60
73509;SHT30;61750;55.036;73.312;2023-02-15T00:44:09;-21.17;78.71
73509;SHT30;61750;55.036;73.312;2023-02-15T00:46:35;-21.17;78.73
73509;SHT30;61750;55.036;73.312;2023-02-15T00:49:01;-21.16;78.75
73509;SHT30;61750;55.036;73.312;2023-02-15T00:51:28;-21.16;78.67
73509;SHT30;61750;55.036;73.312;2023-02-15T00:53:59;-21.17;78.59
73509;SHT30;61750;55.036;73.312;2023-02-15T00:56:35;-21.07;78.96
73509;SHT30;61750;55.036;73.312;2023-02-15T00:59:08;-21.10;78.86
73509;SHT30;61750;55.036;73.312;2023-02-15T01:01:34;-21.12;78.80
73509;SHT30;61750;55.036;73.312;2023-02-15T01:04:01;-21.09;78.89
73509;SHT30;61750;55.036;73.312;2023-02-15T01:06:38;-21.00;79.01
73509;SHT30;61750;55.036;73.312;2023-02-15T01:09:09;-20.98;79.05
73509;SHT30;61750;55.036;73.312;2023-02-15T01:11:40;-21.00;78.95
73509;SHT30;61750;55.036;73.312;2023-02-15T01:14:06;-20.99;78.78
73509;SHT30;61750;55.036;73.312;2023-02-15T01:16:41;-21.00;78.69
73509;SHT30;61750;55.036;73.312;2023-02-15T01:19:07;-21.09;78.68
73509;SHT30;61750;55.036;73.312;2023-02-15T01:21:33;-21.10;78.80
73509;SHT30;61750;55.036;73.312;2023-02-15T01:24:11;-21.12;78.78
73509;SHT30;61750;55.036;73.312;2023-02-15T01:26:43;-21.04;78.97
73509;SHT30;61750;55.036;73.312;2023-02-15T01:29:09;-21.09;78.94
73509;SHT30;61750;55.036;73.312;2023-02-15T01:31:40;-21.10;78.71
73509;SHT30;61750;55.036;73.312;2023-02-15T01:34:06;-21.09;78.70
73509;SHT30;61750;55.036;73.312;2023-02-15T01:36:33;-21.16;78.38
73509;SHT30;61750;55.036;73.312;2023-02-15T01:39:00;-21.16;78.54
73509;SHT30;61750;55.036;73.312;2023-02-15T01:41:26;-21.23;78.42
73509;SHT30;61750;55.036;73.312;2023-02-15T01:46:19;-21.38;77.92
73509;SHT30;61750;55.036;73.312;2023-02-15T01:48:52;-21.43;77.94
73509;SHT30;61750;55.036;73.312;2023-02-15T01:51:24;-21.43;78.04
73509;SHT30;61750;55.036;73.312;2023-02-15T01:54:05;-21.47;78.05
73509;SHT30;61750;55.036;73.312;2023-02-15T01:56:35;-21.51;78.04
73509;SHT30;61750;55.036;73.312;2023-02-15T01:59:04;-21.51;78.05
73509;SHT30;61750;55.036;73.312;2023-02-15T02:01:32;-21.51;78.01
73509;SHT30;61750;55.036;73.312;2023-02-15T02:04:17;-21.54;78.08
73509;SHT30;61750;55.036;73.312;2023-02-15T02:06:45;-21.53;78.08
73509;SHT30;61750;55.036;73.312;2023-02-15T02:09:12;-21.51;78.23
73509;SHT30;61750;55.036;73.312;2023-02-15T02:11:38;-21.50;78.30
73509;SHT30;61750;55.036;73.312;2023-02-15T02:14:04;-21.51;78.18
73509;SHT30;61750;55.036;73.312;2023-02-15T02:31:06;-21.74;77.68
73509;SHT30;61750;55.036;73.312;2023-02-15T02:36:21;-21.74;77.65
73509;SHT30;61750;55.036;73.312;2023-02-15T02:41:36;-21.71;77.62
73509;SHT30;61750;55.036;73.312;2023-02-15T02:44:07;-21.72;77.53
73509;SHT30;61750;55.036;73.312;2023-02-15T02:46:44;-21.72;77.50
73509;SHT30;61750;55.036;73.312;2023-02-15T02:49:29;-21.67;77.49
73509;SHT30;61750;55.036;73.312;2023-02-15T02:52:02;-21.69;77.41
73509;SHT30;61750;55.036;73.312;2023-02-15T02:54:38;-21.68;77.22
73509;SHT30;61750;55.036;73.312;2023-02-15T02:57:06;-21.61;77.56
73509;SHT30;61750;55.036;73.312;2023-02-15T02:59:38;-21.50;77.68
73509;SHT30;61750;55.036;73.312;2023-02-15T03:02:10;-21.34;77.82
73509;SHT30;61750;55.036;73.312;2023-02-15T03:04:46;-21.27;77.88
73509;SHT30;61750;55.036;73.312;2023-02-15T03:07:21;-21.23;77.76
73509;SHT30;61750;55.036;73.312;2023-02-15T03:09:54;-21.17;77.54
73509;SHT30;61750;55.036;73.312;2023-02-15T03:12:32;-21.12;77.27
73509;SHT30;61750;55.036;73.312;2023-02-15T03:17:39;-21.04;77.11
73509;SHT30;61750;55.036;73.312;2023-02-15T03:20:08;-21.00;77.02
73509;SHT30;61750;55.036;73.312;2023-02-15T03:23:24;-20.96;76.98
73509;SHT30;61750;55.036;73.312;2023-02-15T03:25:32;-20.89;76.75
73509;SHT30;61750;55.036;73.312;2023-02-15T03:28:00;-20.82;76.90
73509;SHT30;61750;55.036;73.312;2023-02-15T03:30:53;-20.66;77.18
73509;SHT30;61750;55.036;73.312;2023-02-15T03:33:21;-20.62;76.97
73509;SHT30;61750;55.036;73.312;2023-02-15T03:36:01;-20.59;76.76
73509;SHT30;61750;55.036;73.312;2023-02-15T03:41:26;-20.55;76.46
73509;SHT30;61750;55.036;73.312;2023-02-15T03:43:58;-20.54;76.26
73509;SHT30;61750;55.036;73.312;2023-02-15T03:46:33;-20.47;76.44
73509;SHT30;61750;55.036;73.312;2023-02-15T03:49:17;-20.34;76.57
73509;SHT30;61750;55.036;73.312;2023-02-15T03:51:56;-20.33;76.37
73509;SHT30;61750;55.036;73.312;2023-02-15T03:54:30;-20.28;76.31
73509;SHT30;61750;55.036;73.312;2023-02-15T04:00:09;-20.07;76.34
73509;SHT30;61750;55.036;73.312;2023-02-15T04:03:06;-19.87;76.65
73509;SHT30;61750;55.036;73.312;2023-02-15T04:09:48;-19.51;76.74
73509;SHT30;61750;55.036;73.312;2023-02-15T04:12:32;-19.36;76.63
73509;SHT30;61750;55.036;73.312;2023-02-15T04:14:58;-19.25;76.47
73509;SHT30;61750;55.036;73.312;2023-02-15T04:17:43;-19.15;76.46
73509;SHT30;61750;55.036;73.312;2023-02-15T04:20:11;-19.08;76.01
73509;SHT30;61750;55.036;73.312;2023-02-15T04:22:56;-18.90;76.30
73509;SHT30;61750;55.036;73.312;2023-02-15T04:25:40;-18.83;76.04
73509;SHT30;61750;55.036;73.312;2023-02-15T04:28:16;-18.79;75.85
73509;SHT30;61750;55.036;73.312;2023-02-15T04:30:55;-18.59;75.96
73509;SHT30;61750;55.036;73.312;2023-02-15T04:33:21;-18.49;76.08
73509;SHT30;61750;55.036;73.312;2023-02-15T04:35:52;-18.36;75.70
73509;SHT30;61750;55.036;73.312;2023-02-15T04:38:18;-18.32;75.31
73509;SHT30;61750;55.036;73.312;2023-02-15T04:40:54;-18.16;75.48
73509;SHT30;61750;55.036;73.312;2023-02-15T04:43:20;-18.14;75.02
73509;SHT30;61750;55.036;73.312;2023-02-15T04:45:52;-18.01;75.29
73509;SHT30;61750;55.036;73.312;2023-02-15T04:48:18;-17.84;75.18
73509;SHT30;61750;55.036;73.312;2023-02-15T04:50:54;-17.67;75.31
73509;SHT30;61750;55.036;73.312;2023-02-15T04:53:21;-17.61;74.86
73509;SHT30;61750;55.036;73.312;2023-02-15T04:55:47;-17.44;75.05
73509;SHT30;61750;55.036;73.312;2023-02-15T04:58:13;-17.47;74.16
73509;SHT30;61750;55.036;73.312;2023-02-15T05:00:54;-17.43;74.01
73509;SHT30;61750;55.036;73.312;2023-02-15T05:03:21;-17.23;74.40
73509;SHT30;61750;55.036;73.312;2023-02-15T05:05:52;-17.16;74.05
73509;SHT30;61750;55.036;73.312;2023-02-15T05:08:19;-17.08;73.75
73509;SHT30;61750;55.036;73.312;2023-02-15T05:10:52;-16.87;73.82
73509;SHT30;61750;55.036;73.312;2023-02-15T05:13:19;-16.71;73.59
73509;SHT30;61750;55.036;73.312;2023-02-15T05:15:55;-16.54;73.20
73509;SHT30;61750;55.036;73.312;2023-02-15T05:18:25;-16.37;73.05
73509;SHT30;61750;55.036;73.312;2023-02-15T05:21:00;-16.28;72.33
73509;SHT30;61750;55.036;73.312;2023-02-15T05:23:29;-16.12;72.08
73509;SHT30;61750;55.036;73.312;2023-02-15T05:25:55;-15.97;72.09
73509;SHT30;61750;55.036;73.312;2023-02-15T05:28:39;-15.75;71.95
73509;SHT30;61750;55.036;73.312;2023-02-15T05:33:37;-15.58;70.95
73509;SHT30;61750;55.036;73.312;2023-02-15T05:36:10;-15.39;70.88
73509;SHT30;61750;55.036;73.312;2023-02-15T05:38:36;-15.14;70.99
73509;SHT30;61750;55.036;73.312;2023-02-15T05:41:05;-14.99;70.26
73509;SHT30;61750;55.036;73.312;2023-02-15T05:43:32;-14.89;69.49
73509;SHT30;61750;55.036;73.312;2023-02-15T05:45:58;-14.72;69.00
73509;SHT30;61750;55.036;73.312;2023-02-15T05:48:25;-14.42;69.03
73509;SHT30;61750;55.036;73.312;2023-02-15T05:51:02;-14.27;68.34
73509;SHT30;61750;55.036;73.312;2023-02-15T05:53:38;-14.20;67.39
73509;SHT30;61750;55.036;73.312;2023-02-15T05:56:08;-14.16;67.09
73509;SHT30;61750;55.036;73.312;2023-02-15T05:58:35;-14.04;66.81
73509;SHT30;61750;55.036;73.312;2023-02-15T06:01:08;-13.93;66.67
73509;SHT30;61750;55.036;73.312;2023-02-15T06:03:45;-13.76;66.55
73509;SHT30;61750;55.036;73.312;2023-02-15T06:06:18;-13.64;66.09
73509;SHT30;61750;55.036;73.312;2023-02-15T06:08:44;-13.54;65.69
73509;SHT30;61750;55.036;73.312;2023-02-15T06:11:10;-13.50;65.16
73509;SHT30;61750;55.036;73.312;2023-02-15T06:13:36;-13.30;65.20
73509;SHT30;61750;55.036;73.312;2023-02-15T06:16:12;-13.23;64.46
73509;SHT30;61750;55.036;73.312;2023-02-15T06:18:38;-12.92;64.42
73509;SHT30;61750;55.036;73.312;2023-02-15T06:21:04;-12.89;63.68
73509;SHT30;61750;55.036;73.312;2023-02-15T06:23:30;-12.74;63.52
73509;SHT30;61750;55.036;73.312;2023-02-15T06:25:56;-12.63;62.78
73509;SHT30;61750;55.036;73.312;2023-02-15T06:28:22;-12.56;62.23
73509;SHT30;61750;55.036;73.312;2023-02-15T06:30:54;-12.43;61.49
73509;SHT30;61750;55.036;73.312;2023-02-15T06:33:30;-12.43;61.24
73509;SHT30;61750;55.036;73.312;2023-02-15T06:35:59;-12.23;60.95
73509;SHT30;61750;55.036;73.312;2023-02-15T06:38:26;-12.16;60.37
73509;SHT30;61750;55.036;73.312;2023-02-15T06:40:52;-12.13;60.04
73509;SHT30;61750;55.036;73.312;2023-02-15T06:43:23;-12.10;59.81
73509;SHT30;61750;55.036;73.312;2023-02-15T06:45:52;-12.02;59.94
73509;SHT30;61750;55.036;73.312;2023-02-15T06:48:18;-12.03;59.74
73509;SHT30;61750;55.036;73.312;2023-02-15T06:50:54;-11.99;59.55
73509;SHT30;61750;55.036;73.312;2023-02-15T06:53:20;-11.78;59.80
73509;SHT30;61750;55.036;73.312;2023-02-15T06:55:47;-11.65;58.95
73509;SHT30;61750;55.036;73.312;2023-02-15T06:58:14;-11.67;58.74
73509;SHT30;61750;55.036;73.312;2023-02-15T07:00:52;-11.48;58.77
73509;SHT30;61750;55.036;73.312;2023-02-15T07:03:18;-11.41;58.71
73509;SHT30;61750;55.036;73.312;2023-02-15T07:05:58;-11.27;58.26
73509;SHT30;61750;55.036;73.312;2023-02-15T07:08:25;-11.01;58.37
73509;SHT30;61750;55.036;73.312;2023-02-15T07:10:53;-10.73;57.61
73509;SHT30;61750;55.036;73.312;2023-02-15T07:13:19;-10.52;56.58
73509;SHT30;61750;55.036;73.312;2023-02-15T07:15:55;-10.35;56.80
73509;SHT30;61750;55.036;73.312;2023-02-15T07:18:22;-10.14;57.69
73509;SHT30;61750;55.036;73.312;2023-02-15T07:20:52;-10.25;57.62
73509;SHT30;61750;55.036;73.312;2023-02-15T07:23:19;-10.31;58.21
73509;SHT30;61750;55.036;73.312;2023-02-15T07:25:45;-10.48;58.34
73509;SHT30;61750;55.036;73.312;2023-02-15T07:28:11;-10.34;58.30
73509;SHT30;61750;55.036;73.312;2023-02-15T07:30:54;-10.45;58.85
73509;SHT30;61750;55.036;73.312;2023-02-15T07:33:21;-10.31;58.74
73509;SHT30;61750;55.036;73.312;2023-02-15T07:35:53;-10.00;58.38
73509;SHT30;61750;55.036;73.312;2023-02-15T07:38:27;-9.78;57.53
73509;SHT30;61750;55.036;73.312;2023-02-15T07:41:01;-9.83;56.63
73509;SHT30;61750;55.036;73.312;2023-02-15T07:43:28;-9.60;56.93
73509;SHT30;61750;55.036;73.312;2023-02-15T07:46:06;-9.33;56.50
73509;SHT30;61750;55.036;73.312;2023-02-15T07:48:52;-9.19;56.04
73509;SHT30;61750;55.036;73.312;2023-02-15T07:51:18;-8.98;56.02
73509;SHT30;61750;55.036;73.312;2023-02-15T07:53:47;-9.05;55.41
73509;SHT30;61750;55.036;73.312;2023-02-15T07:56:14;-9.09;55.69
73509;SHT30;61750;55.036;73.312;2023-02-15T07:58:40;-9.01;56.30
73509;SHT30;61750;55.036;73.312;2023-02-15T08:01:30;-9.09;55.71
73509;SHT30;61750;55.036;73.312;2023-02-15T08:03:57;-9.12;55.80
73509;SHT30;61750;55.036;73.312;2023-02-15T08:06:27;-9.28;57.00
73509;SHT30;61750;55.036;73.312;2023-02-15T08:09:06;-9.12;55.96
73509;SHT30;61750;55.036;73.312;2023-02-15T08:11:36;-9.30;56.55
73509;SHT30;61750;55.036;73.312;2023-02-15T08:14:07;-9.30;56.91
73509;SHT30;61750;55.036;73.312;2023-02-15T08:16:44;-9.22;56.45
73509;SHT30;61750;55.036;73.312;2023-02-15T08:19:12;-8.96;56.54
73509;SHT30;61750;55.036;73.312;2023-02-15T08:21:39;-8.78;55.69
73509;SHT30;61750;55.036;73.312;2023-02-15T08:24:16;-8.91;55.27
73509;SHT30;61750;55.036;73.312;2023-02-15T08:26:47;-8.69;55.28
73509;SHT30;61750;55.036;73.312;2023-02-15T08:29:14;-8.75;54.48
73509;SHT30;61750;55.036;73.312;2023-02-15T08:31:40;-8.77;53.85
73509;SHT30;61750;55.036;73.312;2023-02-15T08:34:08;-8.60;53.28
73509;SHT30;61750;55.036;73.312;2023-02-15T08:36:36;-8.58;52.97
73509;SHT30;61750;55.036;73.312;2023-02-15T08:39:03;-8.52;52.86
73509;SHT30;61750;55.036;73.312;2023-02-15T08:41:41;-8.38;52.39
73509;SHT30;61750;55.036;73.312;2023-02-15T08:44:08;-8.47;51.36
73509;SHT30;61750;55.036;73.312;2023-02-15T08:46:39;-8.41;51.62
73509;SHT30;61750;55.036;73.312;2023-02-15T08:49:05;-8.33;51.55
73509;SHT30;61750;55.036;73.312;2023-02-15T08:51:33;-8.19;51.16
73509;SHT30;61750;55.036;73.312;2023-02-15T08:54:11;-8.47;50.58
73509;SHT30;61750;55.036;73.312;2023-02-15T08:56:39;-8.38;50.79
73509;SHT30;61750;55.036;73.312;2023-02-15T08:59:16;-8.30;50.75
73509;SHT30;61750;55.036;73.312;2023-02-15T09:01:59;-8.27;50.53
73509;SHT30;61750;55.036;73.312;2023-02-15T09:04:26;-8.34;50.47
73509;SHT30;61750;55.036;73.312;2023-02-15T09:06:53;-8.05;51.01
73509;SHT30;61750;55.036;73.312;2023-02-15T09:09:19;-8.05;50.25
73509;SHT30;61750;55.036;73.312;2023-02-15T09:11:48;-7.81;50.00
73509;SHT30;61750;55.036;73.312;2023-02-15T09:14:16;-7.81;49.43
73509;SHT30;61750;55.036;73.312;2023-02-15T09:16:51;-7.81;49.49
73509;SHT30;61750;55.036;73.312;2023-02-15T09:19:21;-7.68;49.47
73509;SHT30;61750;55.036;73.312;2023-02-15T09:21:50;-7.54;49.37
73509;SHT30;61750;55.036;73.312;2023-02-15T09:24:17;-7.48;48.75
73509;SHT30;61750;55.036;73.312;2023-02-15T09:26:44;-7.58;48.72
73509;SHT30;61750;55.036;73.312;2023-02-15T09:29:11;-7.60;48.62
73509;SHT30;61750;55.036;73.312;2023-02-15T09:31:40;-7.58;48.38
73509;SHT30;61750;55.036;73.312;2023-02-15T09:34:09;-7.49;48.63
73509;SHT30;61750;55.036;73.312;2023-02-15T09:36:36;-7.35;48.05
73509;SHT30;61750;55.036;73.312;2023-02-15T09:39:07;-7.05;48.25
73509;SHT30;61750;55.036;73.312;2023-02-15T09:49:48;-6.63;46.53
73509;SHT30;61750;55.036;73.312;2023-02-15T09:55:22;-6.43;45.63
73509;SHT30;61750;55.036;73.312;2023-02-15T10:09:33;-5.61;43.49
73509;SHT30;61750;55.036;73.312;2023-02-15T10:19:48;-5.40;42.77
73509;SHT30;61750;55.036;73.312;2023-02-15T10:25:06;-5.64;42.98
73509;SHT30;61750;55.036;73.312;2023-02-15T10:27:46;-5.36;42.78
73509;SHT30;61750;55.036;73.312;2023-02-15T10:30:14;-5.44;42.98
73509;SHT30;61750;55.036;73.312;2023-02-15T10:32:51;-5.40;43.06
73509;SHT30;61750;55.036;73.312;2023-02-15T10:36:36;-5.44;41.72
73509;SHT30;61750;55.036;73.312;2023-02-15T10:38:44;-5.61;42.37
73509;SHT30;61750;55.036;73.312;2023-02-15T10:41:34;-5.60;42.20
73509;SHT30;61750;55.036;73.312;2023-02-15T10:44:16;-5.66;42.50
73509;SHT30;61750;55.036;73.312;2023-02-15T10:58:01;-6.46;43.22
73509;SHT30;61750;55.036;73.312;2023-02-15T11:03:33;-6.89;44.74
73509;SHT30;61750;55.036;73.312;2023-02-15T11:06:11;-6.97;44.63
73509;SHT30;61750;55.036;73.312;2023-02-15T11:09:09;-6.99;45.13
73509;SHT30;61750;55.036;73.312;2023-02-15T11:11:32;-7.08;44.58
73509;SHT30;61750;55.036;73.312;2023-02-15T11:14:56;-7.48;45.20
73509;SHT30;61750;55.036;73.312;2023-02-15T11:17:02;-7.74;46.62
73509;SHT30;61750;55.036;73.312;2023-02-15T11:19:31;-8.09;46.68
73509;SHT30;61750;55.036;73.312;2023-02-15T11:22:04;-8.55;48.15
73509;SHT30;61750;55.036;73.312;2023-02-15T11:24:32;-8.52;48.82
73509;SHT30;61750;55.036;73.312;2023-02-15T11:34:56;-10.03;51.81
73509;SHT30;61750;55.036;73.312;2023-02-15T11:37:27;-10.93;54.22
73509;SHT30;61750;55.036;73.312;2023-02-15T11:39:54;-11.43;55.99
73509;SHT30;61750;55.036;73.312;2023-02-15T11:42:23;-11.76;57.48
73509;SHT30;61750;55.036;73.312;2023-02-15T11:47:26;-11.57;57.72
73509;SHT30;61750;55.036;73.312;2023-02-15T11:49:52;-11.71;57.67
73509;SHT30;61750;55.036;73.312;2023-02-15T11:52:19;-12.05;58.43
73509;SHT30;61750;55.036;73.312;2023-02-15T11:54:47;-12.46;59.54
73509;SHT30;61750;55.036;73.312;2023-02-15T11:59:52;-13.09;62.28
73509;SHT30;61750;55.036;73.312;2023-02-15T12:02:20;-13.33;63.25
73509;SHT30;61750;55.036;73.312;2023-02-15T12:04:58;-13.56;63.92
73509;SHT30;61750;55.036;73.312;2023-02-15T12:07:28;-13.74;64.70
73509;SHT30;61750;55.036;73.312;2023-02-15T12:10:10;-13.87;65.21
73509;SHT30;61750;55.036;73.312;2023-02-15T12:12:49;-14.18;65.42
73509;SHT30;61750;55.036;73.312;2023-02-15T12:15:53;-14.35;66.70
73509;SHT30;61750;55.036;73.312;2023-02-15T12:18:38;-14.52;67.30
73509;SHT30;61750;55.036;73.312;2023-02-15T12:21:14;-14.66;68.10
73509;SHT30;61750;55.036;73.312;2023-02-15T12:23:45;-14.86;68.42
73509;SHT30;61750;55.036;73.312;2023-02-15T12:26:23;-14.86;69.52
73509;SHT30;61750;55.036;73.312;2023-02-15T12:29:00;-14.93;70.17
73509;SHT30;61750;55.036;73.312;2023-02-15T12:31:30;-14.99;70.40
73509;SHT30;61750;55.036;73.312;2023-02-15T12:34:02;-15.04;70.87
73509;SHT30;61750;55.036;73.312;2023-02-15T12:36:44;-15.17;70.92
73509;SHT30;61750;55.036;73.312;2023-02-15T12:39:22;-15.18;71.87
73509;SHT30;61750;55.036;73.312;2023-02-15T12:44:25;-15.20;72.52
73509;SHT30;61750;55.036;73.312;2023-02-15T12:46:58;-15.28;72.36
73509;SHT30;61750;55.036;73.312;2023-02-15T12:49:25;-15.34;72.67
73509;SHT30;61750;55.036;73.312;2023-02-15T12:52:05;-15.35;73.00
73509;SHT30;61750;55.036;73.312;2023-02-15T12:54:35;-15.37;73.05
73509;SHT30;61750;55.036;73.312;2023-02-15T12:57:23;-15.39;73.26
73509;SHT30;61750;55.036;73.312;2023-02-15T13:02:29;-15.47;73.30
73509;SHT30;61750;55.036;73.312;2023-02-15T13:04:56;-15.55;73.30
73509;SHT30;61750;55.036;73.312;2023-02-15T13:07:24;-15.55;73.60
73509;SHT30;61750;55.036;73.312;2023-02-15T13:09:50;-15.63;73.56
73509;SHT30;61750;55.036;73.312;2023-02-15T13:12:21;-15.63;73.81
73509;SHT30;61750;55.036;73.312;2023-02-15T13:14:48;-15.68;73.88
73509;SHT30;61750;55.036;73.312;2023-02-15T13:17:17;-15.71;73.97
73509;SHT30;61750;55.036;73.312;2023-02-15T13:19:55;-15.72;74.04
73509;SHT30;61750;55.036;73.312;2023-02-15T13:22:31;-15.73;74.16
73509;SHT30;61750;55.036;73.312;2023-02-15T13:25:13;-15.78;74.17
73509;SHT30;61750;55.036;73.312;2023-02-15T13:27:44;-15.78;74.29
73509;SHT30;61750;55.036;73.312;2023-02-15T13:30:25;-15.82;74.32
73509;SHT30;61750;55.036;73.312;2023-02-15T13:32:53;-15.87;74.32
73509;SHT30;61750;55.036;73.312;2023-02-15T13:41:27;-15.99;74.80
73509;SHT30;61750;55.036;73.312;2023-02-15T13:44:52;-16.02;74.91
73509;SHT30;61750;55.036;73.312;2023-02-15T13:47:12;-16.02;75.01
73509;SHT30;61750;55.036;73.312;2023-02-15T13:52:28;-16.06;74.94
73509;SHT30;61750;55.036;73.312;2023-02-15T14:03:16;-16.23;74.99
73509;SHT30;61750;55.036;73.312;2023-02-15T14:08:58;-16.28;75.13
73509;SHT30;61750;55.036;73.312;2023-02-15T14:21:45;-16.36;74.96
73509;SHT30;61750;55.036;73.312;2023-02-15T14:32:16;-16.52;75.08
73509;SHT30;61750;55.036;73.312;2023-02-15T14:35:19;-16.52;75.24
73509;SHT30;61750;55.036;73.312;2023-02-15T14:37:46;-16.58;75.24
73509;SHT30;61750;55.036;73.312;2023-02-15T14:49:14;-16.72;75.75
73509;SHT30;61750;55.036;73.312;2023-02-15T14:56:43;-16.81;75.84
73509;SHT30;61750;55.036;73.312;2023-02-15T14:59:19;-16.82;76.01
73509;SHT30;61750;55.036;73.312;2023-02-15T15:02:00;-16.88;76.02
73509;SHT30;61750;55.036;73.312;2023-02-15T15:04:38;-16.88;76.37
73509;SHT30;61750;55.036;73.312;2023-02-15T15:09:39;-16.93;76.46
73509;SHT30;61750;55.036;73.312;2023-02-15T15:12:48;-16.98;76.51
73509;SHT30;61750;55.036;73.312;2023-02-15T15:14:54;-16.99;76.54
73509;SHT30;61750;55.036;73.312;2023-02-15T15:20:00;-17.12;76.66
73509;SHT30;61750;55.036;73.312;2023-02-15T15:22:32;-17.16;76.84
73509;SHT30;61750;55.036;73.312;2023-02-15T15:25:02;-17.19;77.01
73509;SHT30;61750;55.036;73.312;2023-02-15T15:27:38;-17.18;77.25
73509;SHT30;61750;55.036;73.312;2023-02-15T15:37:46;-17.23;77.64
73509;SHT30;61750;55.036;73.312;2023-02-15T15:48:54;-17.26;77.91
73509;SHT30;61750;55.036;73.312;2023-02-15T15:51:22;-17.33;77.82
73509;SHT30;61750;55.036;73.312;2023-02-15T15:53:56;-17.32;77.99
73509;SHT30;61750;55.036;73.312;2023-02-15T15:56:23;-17.32;78.06
73509;SHT30;61750;55.036;73.312;2023-02-15T15:58:52;-17.30;78.35
73509;SHT30;61750;55.036;73.312;2023-02-15T16:01:27;-17.35;78.23
73509;SHT30;61750;55.036;73.312;2023-02-15T16:03:54;-17.39;78.12
73509;SHT30;61750;55.036;73.312;2023-02-15T16:06:34;-17.44;78.08
73509;SHT30;61750;55.036;73.312;2023-02-15T16:09:13;-17.46;78.14
73509;SHT30;61750;55.036;73.312;2023-02-15T16:11:41;-17.50;78.14
73509;SHT30;61750;55.036;73.312;2023-02-15T16:14:13;-17.47;78.44
73509;SHT30;61750;55.036;73.312;2023-02-15T16:16:46;-17.44;78.58
73509;SHT30;61750;55.036;73.312;2023-02-15T16:19:18;-17.42;78.55
73509;SHT30;61750;55.036;73.312;2023-02-15T16:21:46;-17.40;78.62
73509;SHT30;61750;55.036;73.312;2023-02-15T16:24:27;-17.42;78.49
73509;SHT30;61750;55.036;73.312;2023-02-15T16:29:32;-17.46;78.34
73509;SHT30;61750;55.036;73.312;2023-02-15T16:32:03;-17.50;78.34
73509;SHT30;61750;55.036;73.312;2023-02-15T16:34:29;-17.49;78.45
73509;SHT30;61750;55.036;73.312;2023-02-15T16:37:14;-17.49;78.53
73509;SHT30;61750;55.036;73.312;2023-02-15T16:39:40;-17.49;78.64
73509;SHT30;61750;55.036;73.312;2023-02-15T16:42:06;-17.49;78.60
73509;SHT30;61750;55.036;73.312;2023-02-15T16:44:32;-17.54;78.49
73509;SHT30;61750;55.036;73.312;2023-02-15T16:46:59;-17.53;78.52
73509;SHT30;61750;55.036;73.312;2023-02-15T16:49:35;-17.59;78.48
73509;SHT30;61750;55.036;73.312;2023-02-15T16:52:12;-17.57;78.65
73509;SHT30;61750;55.036;73.312;2023-02-15T16:54:41;-17.60;78.57
73509;SHT30;61750;55.036;73.312;2023-02-15T16:57:21;-17.60;78.59
73509;SHT30;61750;55.036;73.312;2023-02-15T16:59:48;-17.61;78.54
73509;SHT30;61750;55.036;73.312;2023-02-15T17:02:24;-17.66;78.44
73509;SHT30;61750;55.036;73.312;2023-02-15T17:07:48;-17.75;78.31
73509;SHT30;61750;55.036;73.312;2023-02-15T17:11:11;-17.78;78.59
73509;SHT30;61750;55.036;73.312;2023-02-15T17:13:38;-17.82;78.63
73509;SHT30;61750;55.036;73.312;2023-02-15T17:18:31;-17.81;78.74
73509;SHT30;61750;55.036;73.312;2023-02-15T17:21:01;-17.90;78.48
73509;SHT30;61750;55.036;73.312;2023-02-15T17:23:48;-17.90;78.58
73509;SHT30;61750;55.036;73.312;2023-02-15T17:26:15;-17.94;78.62
73509;SHT30;61750;55.036;73.312;2023-02-15T17:28:46;-17.95;78.64
73509;SHT30;61750;55.036;73.312;2023-02-15T17:31:13;-17.92;78.98
73509;SHT30;61750;55.036;73.312;2023-02-15T17:33:39;-17.94;78.97
73509;SHT30;61750;55.036;73.312;2023-02-15T17:36:16;-17.92;79.10
73509;SHT30;61750;55.036;73.312;2023-02-15T17:41:28;-17.97;79.01
73509;SHT30;61750;55.036;73.312;2023-02-15T17:43:55;-17.95;79.33
73509;SHT30;61750;55.036;73.312;2023-02-15T17:46:22;-17.94;79.33
73509;SHT30;61750;55.036;73.312;2023-02-15T17:48:59;-18.00;79.20
73509;SHT30;61750;55.036;73.312;2023-02-15T17:51:35;-18.01;79.16
73509;SHT30;61750;55.036;73.312;2023-02-15T17:54:02;-18.00;79.40
73509;SHT30;61750;55.036;73.312;2023-02-15T17:56:46;-17.98;79.59
73509;SHT30;61750;55.036;73.312;2023-02-15T17:59:12;-17.97;79.70
73509;SHT30;61750;55.036;73.312;2023-02-15T18:01:44;-17.91;79.90
73509;SHT30;61750;55.036;73.312;2023-02-15T18:04:30;-17.88;79.92
73509;SHT30;61750;55.036;73.312;2023-02-15T18:07:18;-17.94;79.70
73509;SHT30;61750;55.036;73.312;2023-02-15T18:10:12;-17.84;80.03
73509;SHT30;61750;55.036;73.312;2023-02-15T18:12:56;-17.84;80.06
73509;SHT30;61750;55.036;73.312;2023-02-15T18:15:52;-17.78;80.07
73509;SHT30;61750;55.036;73.312;2023-02-15T18:18:18;-17.73;80.11
73509;SHT30;61750;55.036;73.312;2023-02-15T18:20:52;-17.73;80.09
73509;SHT30;61750;55.036;73.312;2023-02-15T18:23:18;-17.75;79.86
73509;SHT30;61750;55.036;73.312;2023-02-15T18:25:44;-17.77;79.81
73509;SHT30;61750;55.036;73.312;2023-02-15T18:28:10;-17.78;79.74
73509;SHT30;61750;55.036;73.312;2023-02-15T18:30:52;-17.77;79.60
73509;SHT30;61750;55.036;73.312;2023-02-15T18:36:00;-17.84;79.52
73509;SHT30;61750;55.036;73.312;2023-02-15T18:38:27;-17.88;79.61
73509;SHT30;61750;55.036;73.312;2023-02-15T18:40:58;-17.87;79.68
73509;SHT30;61750;55.036;73.312;2023-02-15T18:43:35;-17.88;79.71
73509;SHT30;61750;55.036;73.312;2023-02-15T18:46:01;-17.91;79.79
73509;SHT30;61750;55.036;73.312;2023-02-15T18:48:41;-17.94;79.81